createdAt,value
2022-09-28T00:01:59.688Z,50.75
2022-09-28T00:04:30.010Z,49.25
2022-09-28T00:07:01.325Z,50.00
2022-09-28T00:09:31.915Z,50.00
2022-09-28T00:12:02.547Z,49.50
2022-09-28T00:14:33.179Z,50.75
2022-09-28T00:17:03.590Z,51.50
2022-09-28T00:19:34.108Z,51.75
2022-09-28T00:22:06.315Z,53.00
2022-09-28T00:24:37.033Z,49.75
2022-09-28T00:27:07.491Z,50.00
2022-09-28T00:29:38.610Z,53.50
2022-09-28T00:32:11.256Z,51.25
2022-09-28T00:34:43.789Z,50.00
2022-09-28T00:37:15.292Z,51.25
2022-09-28T00:39:46.397Z,52.50
2022-09-28T00:42:40.414Z,50.00
2022-09-28T00:45:10.649Z,53.00
2022-09-28T00:47:43.922Z,57.75
2022-09-28T00:50:29.015Z,52.00
2022-09-28T00:53:14.215Z,38.00
2022-09-28T00:55:50.959Z,51.00
2022-09-28T00:58:26.957Z,57.00
2022-09-28T01:00:59.617Z,52.25
2022-09-28T01:03:30.308Z,51.25
2022-09-28T01:06:04.142Z,51.50
2022-09-28T01:08:55.380Z,53.25
2022-09-28T01:11:27.206Z,55.00
2022-09-28T01:13:58.707Z,57.75
2022-09-28T01:16:43.694Z,55.25
2022-09-28T01:19:36.166Z,51.75
2022-09-28T01:25:30.545Z,56.00
2022-09-28T01:28:15.290Z,53.50
2022-09-28T01:30:39.719Z,54.50
2022-09-28T01:33:13.429Z,51.00
2022-09-28T01:35:55.757Z,52.00
2022-09-28T01:38:28.978Z,52.50
2022-09-28T01:41:00.803Z,53.25
2022-09-28T01:43:34.309Z,56.50
2022-09-28T01:46:22.487Z,52.75
2022-09-28T01:49:05.592Z,54.75
2022-09-28T01:51:57.233Z,51.50
2022-09-28T01:54:39.297Z,46.25
2022-09-28T01:57:14.965Z,52.50
2022-09-28T01:59:48.826Z,45.00
2022-09-28T02:02:22.557Z,52.75
2022-09-28T02:04:59.122Z,52.75
2022-09-28T02:07:44.435Z,52.50
2022-09-28T02:10:20.286Z,53.00
2022-09-28T02:12:56.779Z,51.25
2022-09-28T02:15:39.383Z,52.75
2022-09-28T02:18:13.428Z,50.75
2022-09-28T02:20:47.134Z,51.25
2022-09-28T02:23:19.904Z,54.75
2022-09-28T02:25:53.107Z,56.00
2022-09-28T02:28:23.396Z,50.00
2022-09-28T02:30:53.861Z,51.75
2022-09-28T02:33:27.084Z,55.00
2022-09-28T02:36:00.377Z,48.50
2022-09-28T02:38:32.386Z,51.75
2022-09-28T02:41:28.543Z,50.00
2022-09-28T02:44:26.176Z,55.00
2022-09-28T02:47:02.183Z,48.50
2022-09-28T02:49:44.652Z,47.75
2022-09-28T02:52:30.232Z,44.50
2022-09-28T02:58:23.866Z,48.25
2022-09-28T03:01:14.222Z,48.75
2022-09-28T03:06:50.817Z,47.75
2022-09-28T03:09:26.787Z,50.25
2022-09-28T03:11:59.979Z,46.25
2022-09-28T03:14:30.395Z,47.25
2022-09-28T03:17:00.843Z,49.50
2022-09-28T03:19:33.493Z,49.50
2022-09-28T03:22:03.896Z,52.00
2022-09-28T03:24:34.721Z,47.00
2022-09-28T03:27:05.034Z,50.50
2022-09-28T03:29:35.489Z,50.50
2022-09-28T03:32:05.940Z,46.25
2022-09-28T03:34:36.665Z,49.25
2022-09-28T03:37:07.299Z,49.75
2022-09-28T03:39:38.266Z,51.00
2022-09-28T03:42:08.701Z,46.50
2022-09-28T03:44:39.439Z,46.25
2022-09-28T03:47:10.412Z,45.50
2022-09-28T03:49:40.846Z,48.00
2022-09-28T03:52:11.545Z,49.50
2022-09-28T03:54:46.955Z,47.25
2022-09-28T03:57:14.186Z,47.50
2022-09-28T03:59:45.538Z,47.75
2022-09-28T04:02:16.188Z,41.75
2022-09-28T04:04:46.749Z,41.25
2022-09-28T04:07:17.247Z,46.00
2022-09-28T04:09:48.280Z,42.75
2022-09-28T04:12:18.663Z,31.75
2022-09-28T04:14:49.742Z,44.00
2022-09-28T04:17:20.377Z,41.25
2022-09-28T04:19:51.018Z,41.00
2022-09-28T04:22:21.330Z,40.25
2022-09-28T04:25:05.357Z,37.25
2022-09-28T04:27:36.249Z,40.25
2022-09-28T04:30:07.311Z,38.00
2022-09-28T04:32:37.729Z,38.25
2022-09-28T04:35:12.501Z,36.00
2022-09-28T04:37:43.661Z,14.25
2022-09-28T04:40:14.144Z,35.25
2022-09-28T04:42:45.618Z,36.00
2022-09-28T04:45:16.015Z,36.25
2022-09-28T04:47:46.646Z,33.50
2022-09-28T04:50:17.022Z,32.25
2022-09-28T04:52:47.390Z,34.75
2022-09-28T04:55:17.730Z,35.25
2022-09-28T04:57:48.025Z,40.25
2022-09-28T05:00:18.396Z,38.50
2022-09-28T05:02:50.784Z,39.00
2022-09-28T05:05:21.237Z,41.00
2022-09-28T05:07:53.411Z,37.00
2022-09-28T05:10:34.301Z,36.75
2022-09-28T05:13:11.114Z,36.75
2022-09-28T05:15:44.361Z,31.75
2022-09-28T05:18:15.169Z,27.50
2022-09-28T05:20:52.261Z,34.00
2022-09-28T05:23:24.396Z,31.75
2022-09-28T05:26:04.986Z,31.50
2022-09-28T05:28:46.202Z,32.25
2022-09-28T05:31:19.611Z,32.00
2022-09-28T05:33:50.159Z,31.00
2022-09-28T05:36:21.094Z,33.25
2022-09-28T09:19:42.502Z,44.00
2022-09-28T09:22:19.977Z,44.00
2022-09-28T09:25:04.907Z,46.00
2022-09-28T09:27:50.177Z,45.40
2022-09-28T09:30:21.587Z,49.40
2022-09-28T09:33:09.335Z,48.00
2022-09-28T09:35:49.138Z,48.20
2022-09-28T09:38:33.913Z,50.25
2022-09-28T09:41:26.207Z,47.40
2022-09-28T09:46:42.306Z,50.50
2022-09-28T09:49:15.512Z,51.75
2022-09-28T09:51:54.817Z,50.75
2022-09-28T09:54:28.026Z,48.00
2022-09-28T09:57:04.295Z,50.50
2022-09-28T09:59:37.353Z,54.25
2022-09-28T10:02:30.652Z,52.00
2022-09-28T10:05:12.321Z,54.00
2022-09-28T10:07:45.523Z,45.00
2022-09-28T10:10:24.615Z,49.00
2022-09-28T10:12:55.907Z,49.25
2022-09-28T10:15:29.229Z,50.00
2022-09-28T10:18:03.501Z,48.00
2022-09-28T10:20:37.254Z,53.25
2022-09-28T10:23:13.032Z,48.75
2022-09-28T10:25:46.084Z,45.75
2022-09-28T10:28:19.353Z,55.25
2022-09-28T10:30:49.723Z,51.00
2022-09-28T10:33:31.475Z,51.25
2022-09-28T10:36:04.193Z,53.00
2022-09-28T10:38:36.189Z,55.00
2022-09-28T10:41:14.037Z,52.25
2022-09-28T10:43:59.953Z,51.50
2022-09-28T10:46:30.588Z,55.75
2022-09-28T10:49:06.788Z,51.25
2022-09-28T10:51:43.435Z,48.50
2022-09-28T10:54:16.660Z,50.75
2022-09-28T10:56:48.778Z,54.00
2022-09-28T10:59:34.099Z,51.50
2022-09-28T11:02:31.312Z,52.00
2022-09-28T11:05:03.667Z,48.60
2022-09-28T11:07:37.424Z,50.25
2022-09-28T11:10:10.701Z,52.00
2022-09-28T11:12:44.173Z,54.25
2022-09-28T11:15:20.204Z,50.00
2022-09-28T11:17:54.164Z,50.60
2022-09-28T11:20:30.118Z,48.40
2022-09-28T11:23:18.324Z,51.75
2022-09-28T11:26:08.482Z,48.50
2022-09-28T11:28:40.217Z,48.50
2022-09-28T11:31:11.815Z,47.20
2022-09-28T11:33:45.473Z,43.20
2022-09-28T11:36:18.601Z,47.20
2022-09-28T11:39:06.767Z,43.60
2022-09-28T11:42:00.994Z,39.00
2022-09-28T11:44:49.354Z,47.00
2022-09-28T11:47:37.334Z,42.80
2022-09-28T11:50:28.816Z,41.40
2022-09-28T11:53:18.975Z,41.20
2022-09-28T11:56:11.069Z,40.60
2022-09-28T11:58:47.819Z,40.60
2022-09-28T12:01:22.578Z,41.20
2022-09-28T12:04:04.531Z,42.20
2022-09-28T12:06:43.626Z,40.40
2022-09-28T12:09:20.929Z,36.60
2022-09-28T12:11:56.937Z,39.20
2022-09-28T12:14:33.236Z,41.20
2022-09-28T12:17:09.559Z,42.80
2022-09-28T12:20:04.487Z,40.80
2022-09-28T12:22:46.367Z,42.00
2022-09-28T12:25:23.231Z,35.20
2022-09-28T12:31:10.315Z,38.40
2022-09-28T12:31:27.415Z,36.00
2022-09-28T12:33:46.284Z,38.60
2022-09-28T12:36:47.035Z,36.60
2022-09-28T12:39:56.654Z,39.00
2022-09-28T12:42:19.400Z,38.60
2022-09-28T12:45:13.539Z,38.20
2022-09-28T12:48:01.925Z,40.20
2022-09-28T12:50:58.353Z,37.40
2022-09-28T12:53:46.308Z,35.60
2022-09-28T12:56:25.379Z,35.40
2022-09-28T12:59:07.601Z,40.40
2022-09-28T13:01:57.964Z,32.80
2022-09-28T13:04:42.926Z,34.00
2022-09-28T13:07:20.667Z,39.60
2022-09-28T13:09:53.878Z,39.00
2022-09-28T13:12:30.302Z,33.40
2022-09-28T13:15:23.105Z,32.40
2022-09-28T13:18:05.901Z,32.20
2022-09-28T13:20:48.282Z,36.60
2022-09-28T13:26:45.246Z,30.40
2022-09-28T13:29:17.114Z,40.40
2022-09-28T13:31:55.253Z,39.80
2022-09-28T13:34:31.825Z,39.80
2022-09-28T13:37:23.279Z,38.00
2022-09-28T13:39:58.711Z,40.60
2022-09-28T13:42:46.871Z,38.80
2022-09-28T13:45:31.242Z,36.20
2022-09-28T13:48:22.952Z,42.00
2022-09-28T13:51:06.387Z,40.20
2022-09-28T13:54:03.167Z,41.40
2022-09-28T13:56:46.149Z,38.80
2022-09-28T13:59:32.138Z,43.20
2022-09-28T14:02:11.150Z,40.40
2022-09-28T14:05:00.177Z,40.20
2022-09-28T14:07:39.247Z,32.80
2022-09-28T14:10:26.170Z,40.40
2022-09-28T14:12:56.876Z,29.60
2022-09-28T14:15:35.956Z,33.20
2022-09-28T14:18:33.309Z,38.00
2022-09-28T14:21:06.510Z,40.40
2022-09-28T14:24:13.448Z,37.00
2022-09-28T14:27:04.703Z,41.20
2022-09-28T14:29:38.304Z,42.60
2022-09-28T14:32:14.313Z,40.00
2022-09-28T14:34:48.127Z,47.00
2022-09-28T14:37:30.859Z,43.60
2022-09-28T14:40:04.228Z,48.80
2022-09-28T14:42:34.949Z,49.00
2022-09-28T14:45:15.728Z,46.40
2022-09-28T14:48:13.663Z,48.75
2022-09-28T14:50:44.370Z,47.00
2022-09-28T14:53:20.632Z,45.80
2022-09-28T14:55:56.597Z,47.25
2022-09-28T14:58:29.860Z,47.80
2022-09-28T15:01:05.974Z,44.00
2022-09-28T15:03:38.657Z,57.00
2022-09-28T15:06:16.571Z,45.25
2022-09-28T15:08:47.582Z,50.50
2022-09-28T15:11:20.845Z,44.50
2022-09-28T15:13:53.545Z,43.20
2022-09-28T15:16:25.023Z,44.50
2022-09-28T15:19:08.144Z,42.00
2022-09-28T15:21:43.359Z,46.40
2022-09-28T15:24:34.485Z,46.60
2022-09-28T15:27:21.911Z,47.75
2022-09-28T15:30:04.156Z,55.25
2022-09-28T15:32:36.263Z,59.25
2022-09-28T15:35:24.791Z,54.25
2022-09-28T15:37:56.184Z,47.00
2022-09-28T15:40:35.672Z,35.60
2022-09-28T15:43:28.503Z,50.50
2022-09-28T15:46:06.825Z,47.25
2022-09-28T15:48:52.309Z,47.75
2022-09-28T15:51:24.707Z,44.80
2022-09-28T15:54:25.893Z,46.25
2022-09-28T15:56:58.050Z,47.50
2022-09-28T15:59:33.607Z,45.00
2022-09-28T16:02:22.824Z,51.25
2022-09-28T16:04:55.227Z,48.50
2022-09-28T16:07:29.056Z,45.00
2022-09-28T16:10:17.813Z,41.25
2022-09-28T16:12:54.879Z,44.25
2022-09-28T16:15:28.420Z,43.00
2022-09-28T16:18:02.188Z,47.00
2022-09-28T16:20:35.113Z,43.50
2022-09-28T16:23:18.907Z,46.25
2022-09-28T16:26:00.979Z,46.00
2022-09-28T16:28:40.497Z,48.75
2022-09-28T16:31:19.595Z,50.50
2022-09-28T16:34:11.667Z,42.50
2022-09-28T16:36:47.121Z,46.00
2022-09-28T16:39:20.289Z,51.75
2022-09-28T16:41:53.926Z,47.25
2022-09-28T16:44:28.244Z,45.50
2022-09-28T16:47:02.337Z,52.75
2022-09-28T16:49:32.980Z,54.50
2022-09-28T16:52:08.790Z,53.75
2022-09-28T16:54:39.502Z,53.50
2022-09-28T16:57:13.077Z,54.75
2022-09-28T16:59:45.213Z,55.50
2022-09-28T17:02:45.609Z,54.50
2022-09-28T17:04:55.583Z,56.75
2022-09-28T17:07:37.016Z,60.00
2022-09-28T17:10:23.488Z,62.00
2022-09-28T17:12:54.665Z,61.00
2022-09-28T17:15:27.172Z,54.75
2022-09-28T17:17:59.077Z,63.00
2022-09-28T17:20:32.292Z,51.00
2022-09-28T17:23:03.826Z,62.00
2022-09-28T17:25:35.872Z,64.25
2022-09-28T17:28:06.530Z,61.00
2022-09-28T17:30:36.995Z,59.25
2022-09-28T17:33:08.945Z,59.50
2022-09-28T17:35:39.911Z,57.50
2022-09-28T17:38:13.641Z,57.00
2022-09-28T17:40:45.122Z,61.00
2022-09-28T17:43:15.673Z,60.50
2022-09-28T17:45:47.580Z,62.25
2022-09-28T17:48:21.151Z,62.00
2022-09-28T17:50:54.241Z,61.50
2022-09-28T17:53:29.235Z,64.00
2022-09-28T17:56:02.616Z,61.75
2022-09-28T17:58:32.996Z,61.75
2022-09-28T18:01:10.331Z,56.25
2022-09-28T18:03:43.218Z,59.50
2022-09-28T18:06:16.786Z,57.00
2022-09-28T18:08:47.086Z,59.50
2022-09-28T18:11:17.618Z,60.25
2022-09-28T18:13:50.552Z,59.75
2022-09-28T18:16:21.465Z,61.00
2022-09-28T18:18:51.964Z,60.75
2022-09-28T18:21:22.893Z,59.75
2022-09-28T18:23:54.550Z,55.75
2022-09-28T18:26:24.763Z,62.50
2022-09-28T18:28:55.591Z,56.50
2022-09-28T18:31:26.095Z,59.00
2022-09-28T18:34:00.726Z,61.75
2022-09-28T18:36:33.034Z,58.50
2022-09-28T18:39:04.048Z,56.25
2022-09-28T18:41:34.379Z,56.00
2022-09-28T18:44:04.722Z,57.75
2022-09-28T18:46:35.005Z,49.50
2022-09-28T18:49:05.910Z,61.25
2022-09-28T18:51:36.723Z,56.00
2022-09-28T18:54:07.537Z,63.50
2022-09-28T18:56:38.232Z,65.00
2022-09-28T18:59:12.335Z,65.00
2022-09-28T19:01:53.531Z,62.50
2022-09-28T19:04:24.898Z,64.25
2022-09-28T19:06:55.628Z,65.50
2022-09-28T19:09:26.684Z,50.25
2022-09-28T19:11:59.027Z,56.25
2022-09-28T19:14:30.564Z,57.00
2022-09-28T19:17:04.737Z,54.00
2022-09-28T19:19:41.662Z,50.00
2022-09-28T19:22:13.289Z,50.50
2022-09-28T19:24:43.551Z,49.25
2022-09-28T19:27:15.551Z,48.00
2022-09-28T19:29:54.578Z,45.75
2022-09-28T19:32:25.196Z,45.25
2022-09-28T19:34:59.246Z,44.25
2022-09-28T19:37:29.535Z,44.50
2022-09-28T19:40:03.223Z,41.25
2022-09-28T19:42:38.827Z,47.00
2022-09-28T19:45:13.234Z,45.75
2022-09-28T19:47:43.521Z,47.50
2022-09-28T19:50:16.599Z,44.75
2022-09-28T19:52:46.876Z,42.25
2022-09-28T19:55:27.250Z,44.00
2022-09-28T19:58:04.052Z,41.25
2022-09-28T20:00:34.429Z,36.75
2022-09-28T20:03:05.126Z,42.25
2022-09-28T20:05:37.020Z,40.75
2022-09-28T20:08:09.334Z,35.25
2022-09-28T20:10:49.888Z,31.75
2022-09-28T20:13:21.371Z,40.50
2022-09-28T20:15:58.726Z,44.00
2022-09-28T20:18:30.685Z,45.25
2022-09-28T20:21:06.528Z,41.00
2022-09-28T20:23:36.996Z,35.75
2022-09-28T20:26:10.521Z,44.00
2022-09-28T20:28:42.443Z,36.25
2022-09-28T20:31:24.945Z,42.00
2022-09-28T20:33:55.255Z,42.00
2022-09-28T20:36:26.144Z,34.75
2022-09-28T20:38:56.363Z,30.25
2022-09-28T20:41:27.525Z,35.00
2022-09-28T20:44:04.890Z,32.75
2022-09-28T20:46:32.690Z,34.25
2022-09-28T20:49:03.889Z,36.25
2022-09-28T20:51:34.835Z,33.75
2022-09-28T20:54:07.317Z,39.25
2022-09-28T20:56:39.652Z,31.50
2022-09-28T20:59:14.468Z,31.75
2022-09-28T21:01:45.351Z,34.50
2022-09-28T21:04:15.790Z,29.75
2022-09-28T21:06:46.006Z,35.75
2022-09-28T21:09:16.450Z,31.75
2022-09-28T21:11:46.952Z,32.50
2022-09-28T21:14:17.671Z,36.50
2022-09-28T21:16:48.511Z,33.25
2022-09-28T21:19:19.899Z,31.00
2022-09-28T21:21:50.257Z,31.25
2022-09-28T21:24:20.550Z,29.00
2022-09-28T21:26:52.606Z,30.00
2022-09-28T21:29:23.010Z,34.25
2022-09-28T21:31:54.618Z,33.50
2022-09-28T21:34:25.036Z,36.00
2022-09-28T21:36:55.408Z,38.75
2022-09-28T21:39:25.691Z,38.75
2022-09-28T21:41:56.015Z,27.00
2022-09-28T21:44:26.156Z,37.25
2022-09-28T21:46:56.317Z,33.75
2022-09-28T21:49:26.546Z,30.75
2022-09-28T21:51:56.798Z,30.75
2022-09-28T21:54:26.939Z,29.75
2022-09-28T21:56:58.131Z,27.25
2022-09-28T21:59:28.299Z,37.00
2022-09-28T22:01:58.613Z,37.00
2022-09-28T22:04:28.953Z,31.50
2022-09-28T22:06:59.105Z,39.25
2022-09-28T22:09:29.710Z,39.00
2022-09-28T22:11:59.834Z,36.00
2022-09-28T22:14:30.097Z,41.00
2022-09-28T22:17:00.258Z,37.00
2022-09-28T22:19:31.013Z,41.50
2022-09-28T22:22:01.111Z,39.00
2022-09-28T22:24:32.939Z,41.25
2022-09-28T22:27:03.277Z,42.50
2022-09-28T22:29:33.979Z,34.75
2022-09-28T22:32:04.375Z,36.75
2022-09-28T22:34:35.138Z,27.25
2022-09-28T22:37:05.674Z,38.75
2022-09-28T22:39:37.833Z,37.25
2022-09-28T22:42:08.893Z,35.25
2022-09-28T22:44:39.702Z,35.75
2022-09-28T22:47:09.845Z,32.00
2022-09-28T22:49:40.411Z,34.00
2022-09-28T22:52:10.629Z,34.00
2022-09-28T22:54:40.939Z,28.75
2022-09-28T22:57:11.573Z,34.25
2022-09-28T22:59:42.006Z,33.00
2022-09-28T23:02:12.144Z,35.00
2022-09-28T23:04:42.664Z,36.75
2022-09-28T23:07:12.787Z,30.75
2022-09-28T23:09:44.837Z,35.25
2022-09-28T23:12:15.188Z,35.50
2022-09-28T23:14:46.559Z,27.25
2022-09-28T23:17:16.805Z,35.00
2022-09-28T23:20:06.403Z,28.50
2022-09-28T23:22:37.310Z,34.00
2022-09-28T23:25:08.680Z,34.25
2022-09-28T23:27:40.000Z,26.25
2022-09-28T23:30:10.794Z,32.00
2022-09-28T23:32:42.389Z,31.25
2022-09-28T23:35:13.658Z,35.00
2022-09-28T23:37:44.485Z,32.50
2022-09-28T23:40:14.635Z,38.25
2022-09-28T23:42:46.369Z,31.00
2022-09-28T23:45:16.963Z,40.00
2022-09-28T23:47:47.304Z,28.00
2022-09-28T23:50:17.622Z,35.50
2022-09-28T23:52:48.747Z,23.00
2022-09-28T23:55:19.463Z,32.75
2022-09-28T23:57:49.692Z,34.00
